createdAt,value
2018-07-17T00:00:25.705Z,24.35
2018-07-17T00:01:06.223Z,24.4
2018-07-17T00:01:46.844Z,24.37
2018-07-17T00:02:27.368Z,24.47
2018-07-17T00:03:07.886Z,24.46
2018-07-17T00:03:48.410Z,24.46
2018-07-17T00:04:28.922Z,24.47
2018-07-17T00:05:09.447Z,24.34
2018-07-17T00:05:49.970Z,24.31
2018-07-17T00:06:30.499Z,24.4
2018-07-17T00:07:11.031Z,24.39
2018-07-17T00:07:51.558Z,24.3
2018-07-17T00:08:32.072Z,24.27
2018-07-17T00:09:12.604Z,24.28
2018-07-17T00:09:53.151Z,24.3
2018-07-17T00:10:33.676Z,24.22
2018-07-17T00:11:14.213Z,24.32
2018-07-17T00:11:54.726Z,24.28
2018-07-17T00:12:35.305Z,24.18
2018-07-17T00:13:15.814Z,24.15
2018-07-17T00:13:56.270Z,24.18
2018-07-17T00:14:36.777Z,24.16
2018-07-17T00:15:17.308Z,24.13
2018-07-17T00:15:57.821Z,24.27
2018-07-17T00:16:38.341Z,24.1
2018-07-17T00:17:18.865Z,24.15
2018-07-17T00:17:59.385Z,24.15
2018-07-17T00:18:39.907Z,24.25
2018-07-17T00:19:20.431Z,24.15
2018-07-17T00:20:00.947Z,24.15
2018-07-17T00:20:41.463Z,24.06
2018-07-17T00:21:21.982Z,24.12
2018-07-17T00:22:02.509Z,24.08
2018-07-17T00:22:43.016Z,24.08
2018-07-17T00:23:23.526Z,23.94
2018-07-17T00:24:04.046Z,24.06
2018-07-17T00:24:44.559Z,23.91
2018-07-17T00:25:25.099Z,24.08
2018-07-17T00:26:05.627Z,24.03
2018-07-17T00:26:46.166Z,23.94
2018-07-17T00:27:26.675Z,24.02
2018-07-17T00:28:07.187Z,24.06
2018-07-17T00:28:47.707Z,24.05
2018-07-17T00:29:28.218Z,24.02
2018-07-17T00:30:08.741Z,24.1
2018-07-17T00:30:49.269Z,24.13
2018-07-17T00:31:29.790Z,24.15
2018-07-17T00:32:10.298Z,24.05
2018-07-17T00:32:50.824Z,24.16
2018-07-17T00:33:31.342Z,24.15
2018-07-17T00:34:11.870Z,24.06
2018-07-17T00:34:52.380Z,24.08
2018-07-17T00:35:32.894Z,24.05
2018-07-17T00:36:13.417Z,24.12
2018-07-17T00:36:53.946Z,23.95
2018-07-17T00:37:34.450Z,23.97
2018-07-17T00:38:14.984Z,24.08
2018-07-17T00:38:55.501Z,24.1
2018-07-17T00:39:36.020Z,24.05
2018-07-17T00:40:16.542Z,24.09
2018-07-17T00:40:57.073Z,23.95
2018-07-17T00:41:37.587Z,23.9
2018-07-17T00:42:18.121Z,23.88
2018-07-17T00:42:58.646Z,23.8
2018-07-17T00:43:39.171Z,23.79
2018-07-17T00:44:19.720Z,23.87
2018-07-17T00:45:00.256Z,23.85
2018-07-17T00:45:40.787Z,23.84
2018-07-17T00:46:21.306Z,23.76
2018-07-17T00:47:01.842Z,23.75
2018-07-17T00:47:42.376Z,23.75
2018-07-17T00:48:22.922Z,23.73
2018-07-17T00:49:03.426Z,23.7
2018-07-17T00:49:43.937Z,23.61
2018-07-17T00:50:24.473Z,23.75
2018-07-17T00:51:05.009Z,23.7
2018-07-17T00:51:45.537Z,23.72
2018-07-17T00:52:26.049Z,23.7
2018-07-17T00:53:06.559Z,23.72
2018-07-17T00:53:47.082Z,23.72
2018-07-17T00:54:27.596Z,23.61
2018-07-17T00:55:08.123Z,23.72
2018-07-17T00:55:48.645Z,23.66
2018-07-17T00:56:29.160Z,23.63
2018-07-17T00:57:09.684Z,23.63
2018-07-17T00:57:50.210Z,23.53
2018-07-17T00:58:30.735Z,23.51
2018-07-17T00:59:11.250Z,23.54
2018-07-17T00:59:51.762Z,23.5
2018-07-17T01:00:32.290Z,23.5
2018-07-17T01:01:12.830Z,23.5
2018-07-17T01:01:53.326Z,23.47
2018-07-17T01:02:33.856Z,23.43
2018-07-17T01:03:14.402Z,23.51
2018-07-17T01:03:54.909Z,23.68
2018-07-17T01:04:35.436Z,23.69
2018-07-17T01:05:15.967Z,23.68
2018-07-17T01:05:56.498Z,23.72
2018-07-17T01:06:37.022Z,23.7
2018-07-17T01:07:17.681Z,23.63
2018-07-17T01:07:58.071Z,23.6
2018-07-17T01:08:38.587Z,23.63
2018-07-17T01:09:19.092Z,23.6
2018-07-17T01:09:59.609Z,23.65
2018-07-17T01:10:40.123Z,23.55
2018-07-17T01:11:20.643Z,23.54
2018-07-17T01:12:01.166Z,23.61
2018-07-17T01:12:41.689Z,23.6
2018-07-17T01:13:22.276Z,23.5
2018-07-17T01:14:02.750Z,23.42
2018-07-17T01:14:43.267Z,23.55
2018-07-17T01:15:23.790Z,23.6
2018-07-17T01:16:04.316Z,23.48
2018-07-17T01:16:44.847Z,23.55
2018-07-17T01:17:25.369Z,23.54
2018-07-17T01:18:05.900Z,23.42
2018-07-17T01:18:46.424Z,23.51
2018-07-17T01:19:26.946Z,23.51
2018-07-17T01:20:07.462Z,23.47
2018-07-17T01:20:47.996Z,23.46
2018-07-17T01:21:28.515Z,23.57
2018-07-17T01:22:09.040Z,23.54
2018-07-17T01:22:49.552Z,23.6
2018-07-17T01:23:30.064Z,23.48
2018-07-17T01:24:10.592Z,23.54
2018-07-17T01:24:51.115Z,23.5
2018-07-17T01:25:31.643Z,23.48
2018-07-17T01:26:12.153Z,23.36
2018-07-17T01:26:52.674Z,23.48
2018-07-17T01:27:33.242Z,23.47
2018-07-17T01:28:13.735Z,23.48
2018-07-17T01:28:54.253Z,23.57
2018-07-17T01:29:34.787Z,23.51
2018-07-17T01:30:15.280Z,23.51
2018-07-17T01:30:55.830Z,23.43
2018-07-17T01:31:36.339Z,23.55
2018-07-17T01:32:16.857Z,23.55
2018-07-17T01:32:57.380Z,23.69
2018-07-17T01:33:37.906Z,23.48
2018-07-17T01:34:18.414Z,23.57
2018-07-17T01:34:58.934Z,23.55
2018-07-17T01:35:39.468Z,23.4
2018-07-17T01:36:19.989Z,23.5
2018-07-17T01:37:00.502Z,23.5
2018-07-17T01:37:41.025Z,23.51
2018-07-17T01:38:21.617Z,23.47
2018-07-17T01:39:02.092Z,23.43
2018-07-17T01:39:42.603Z,23.43
2018-07-17T01:40:23.127Z,23.43
2018-07-17T01:41:03.653Z,23.42
2018-07-17T01:41:44.192Z,23.6
2018-07-17T01:42:24.696Z,23.55
2018-07-17T01:43:05.293Z,23.43
2018-07-17T01:43:45.746Z,23.39
2018-07-17T01:44:26.269Z,23.42
2018-07-17T01:45:06.807Z,23.43
2018-07-17T01:45:47.322Z,23.39
2018-07-17T01:46:27.833Z,23.35
2018-07-17T01:47:08.351Z,23.38
2018-07-17T01:47:48.883Z,23.35
2018-07-17T01:48:29.404Z,23.23
2018-07-17T01:49:09.940Z,23.27
2018-07-17T01:49:50.454Z,23.27
2018-07-17T01:50:30.995Z,23.22
2018-07-17T01:51:11.520Z,23.15
2018-07-17T01:51:52.038Z,23.23
2018-07-17T01:52:32.558Z,23.25
2018-07-17T01:53:13.093Z,23.28
2018-07-17T01:53:53.616Z,23.35
2018-07-17T01:54:34.138Z,23.33
2018-07-17T01:55:14.659Z,23.22
2018-07-17T01:55:55.780Z,23.23
2018-07-17T01:56:35.708Z,23.27
2018-07-17T01:57:16.241Z,23.27
2018-07-17T01:57:56.777Z,23.39
2018-07-17T01:58:37.297Z,23.31
2018-07-17T01:59:17.824Z,23.33
2018-07-17T01:59:58.333Z,23.31
2018-07-17T02:00:38.869Z,23.27
2018-07-17T02:01:19.386Z,23.27
2018-07-17T02:01:59.902Z,23.35
2018-07-17T02:02:40.422Z,23.28
2018-07-17T02:03:20.936Z,23.1
2018-07-17T02:04:01.457Z,23.13
2018-07-17T02:04:41.983Z,23.07
2018-07-17T02:05:22.491Z,23.33
2018-07-17T02:06:03.020Z,23.32
2018-07-17T02:06:43.533Z,23.35
2018-07-17T02:07:24.063Z,23.38
2018-07-17T02:08:04.598Z,23.27
2018-07-17T02:08:45.131Z,23.22
2018-07-17T02:09:25.641Z,23.22
2018-07-17T02:10:06.178Z,23.23
2018-07-17T02:10:46.703Z,23.19
2018-07-17T02:11:27.235Z,23.27
2018-07-17T02:12:07.765Z,23.27
2018-07-17T02:12:48.286Z,23.27
2018-07-17T02:13:28.816Z,23.32
2018-07-17T02:14:09.327Z,23.31
2018-07-17T02:14:49.855Z,23.28
2018-07-17T02:15:30.379Z,23.22
2018-07-17T02:16:10.900Z,23.19
2018-07-17T02:16:51.414Z,23.1
2018-07-17T02:17:31.943Z,23.09
2018-07-17T02:18:12.460Z,23.13
2018-07-17T02:18:52.984Z,23.12
2018-07-17T02:19:33.499Z,23.12
2018-07-17T02:20:14.036Z,23.12
2018-07-17T02:20:54.559Z,23.16
2018-07-17T02:21:35.079Z,23.13
2018-07-17T02:22:15.594Z,23.1
2018-07-17T02:22:56.118Z,23.09
2018-07-17T02:23:36.640Z,23.04
2018-07-17T02:24:17.162Z,22.97
2018-07-17T02:24:57.700Z,23
2018-07-17T02:25:38.222Z,22.92
2018-07-17T02:26:18.743Z,22.94
2018-07-17T02:26:59.275Z,22.8
2018-07-17T02:27:39.800Z,22.95
2018-07-17T02:28:20.343Z,22.95
2018-07-17T02:29:00.824Z,23.1
2018-07-17T02:29:41.348Z,23.12
2018-07-17T02:30:21.855Z,23.02
2018-07-17T02:31:02.379Z,22.92
2018-07-17T02:31:42.906Z,23
2018-07-17T02:32:23.433Z,23.01
2018-07-17T02:33:03.940Z,23.02
2018-07-17T02:33:44.476Z,23.04
2018-07-17T02:34:24.995Z,23.1
2018-07-17T02:35:05.522Z,23
2018-07-17T02:35:46.050Z,22.85
2018-07-17T02:36:26.565Z,22.79
2018-07-17T02:37:07.089Z,22.91
2018-07-17T02:37:47.614Z,22.94
2018-07-17T02:38:28.146Z,22.97
2018-07-17T02:39:08.663Z,22.85
2018-07-17T02:39:49.188Z,22.77
2018-07-17T02:40:29.703Z,22.86
2018-07-17T02:41:10.239Z,22.76
2018-07-17T02:41:50.751Z,22.72
2018-07-17T02:42:31.273Z,22.67
2018-07-17T02:43:11.793Z,22.65
2018-07-17T02:43:52.316Z,22.61
2018-07-17T02:44:32.861Z,22.57
2018-07-17T02:45:13.362Z,22.57
2018-07-17T02:45:53.901Z,22.61
2018-07-17T02:46:34.429Z,22.72
2018-07-17T02:47:14.974Z,22.82
2018-07-17T02:47:55.504Z,22.9
2018-07-17T02:48:36.020Z,22.91
2018-07-17T02:49:16.537Z,22.79
2018-07-17T02:49:57.069Z,22.86
2018-07-17T02:50:37.595Z,22.95
2018-07-17T02:51:18.109Z,22.83
2018-07-17T02:51:58.625Z,22.94
2018-07-17T02:52:39.145Z,22.98
2018-07-17T02:53:19.677Z,22.97
2018-07-17T02:54:00.200Z,23.1
2018-07-17T02:54:40.720Z,23.15
2018-07-17T02:55:21.263Z,23.15
2018-07-17T02:56:01.788Z,23.19
2018-07-17T02:56:42.309Z,23.12
2018-07-17T02:57:22.831Z,22.98
2018-07-17T02:58:03.352Z,23
2018-07-17T02:58:43.866Z,22.94
2018-07-17T02:59:24.392Z,22.91
2018-07-17T03:00:04.914Z,22.83
2018-07-17T03:00:45.433Z,22.91
2018-07-17T03:01:25.957Z,22.83
2018-07-17T03:02:06.467Z,22.77
2018-07-17T03:02:46.983Z,22.83
2018-07-17T03:03:27.496Z,22.8
2018-07-17T03:04:08.033Z,22.86
2018-07-17T03:04:48.551Z,22.79
2018-07-17T03:05:29.077Z,22.82
2018-07-17T03:06:09.596Z,22.88
2018-07-17T03:06:50.114Z,22.86
2018-07-17T03:07:30.642Z,22.88
2018-07-17T03:08:11.175Z,22.8
2018-07-17T03:08:51.702Z,22.76
2018-07-17T03:09:32.224Z,22.73
2018-07-17T03:10:12.747Z,22.72
2018-07-17T03:10:53.285Z,22.72
2018-07-17T03:11:33.807Z,22.77
2018-07-17T03:12:14.342Z,22.77
2018-07-17T03:12:54.913Z,22.79
2018-07-17T03:13:35.390Z,22.88
2018-07-17T03:14:15.908Z,22.73
2018-07-17T03:14:56.426Z,22.65
2018-07-17T03:15:36.945Z,22.7
2018-07-17T03:16:17.461Z,22.57
2018-07-17T03:16:57.989Z,22.64
2018-07-17T03:17:38.518Z,22.52
2018-07-17T03:18:19.058Z,22.37
2018-07-17T03:18:59.594Z,22.42
2018-07-17T03:19:40.132Z,22.57
2018-07-17T03:20:20.685Z,22.58
2018-07-17T03:21:01.159Z,22.54
2018-07-17T03:21:41.675Z,22.51
2018-07-17T03:22:22.198Z,22.57
2018-07-17T03:23:02.716Z,22.52
2018-07-17T03:23:43.248Z,22.64
2018-07-17T03:24:23.791Z,22.68
2018-07-17T03:25:04.287Z,22.73
2018-07-17T03:25:44.824Z,22.67
2018-07-17T03:26:25.352Z,22.72
2018-07-17T03:27:05.881Z,22.77
2018-07-17T03:27:46.399Z,22.65
2018-07-17T03:28:26.913Z,22.62
2018-07-17T03:29:07.434Z,22.67
2018-07-17T03:29:47.941Z,22.64
2018-07-17T03:30:28.448Z,22.6
2018-07-17T03:31:08.984Z,22.6
2018-07-17T03:31:49.500Z,22.62
2018-07-17T03:32:30.020Z,22.65
2018-07-17T03:33:10.538Z,22.58
2018-07-17T03:33:51.080Z,22.65
2018-07-17T03:34:31.596Z,22.68
2018-07-17T03:35:12.108Z,22.62
2018-07-17T03:35:52.638Z,22.58
2018-07-17T03:36:33.211Z,22.47
2018-07-17T03:37:13.682Z,22.54
2018-07-17T03:37:54.203Z,22.54
2018-07-17T03:38:34.720Z,22.6
2018-07-17T03:39:15.236Z,22.54
2018-07-17T03:39:55.776Z,22.57
2018-07-17T03:40:36.302Z,22.54
2018-07-17T03:41:16.807Z,22.62
2018-07-17T03:41:57.333Z,22.76
2018-07-17T03:42:37.845Z,22.62
2018-07-17T03:43:18.370Z,22.65
2018-07-17T03:43:58.916Z,22.7
2018-07-17T03:44:39.444Z,22.73
2018-07-17T03:45:19.969Z,22.61
2018-07-17T03:46:00.479Z,22.51
2018-07-17T03:46:41.004Z,22.61
2018-07-17T03:47:21.523Z,22.62
2018-07-17T03:48:02.046Z,22.55
2018-07-17T03:48:42.578Z,22.54
2018-07-17T03:49:23.099Z,22.65
2018-07-17T03:50:03.614Z,22.61
2018-07-17T03:50:44.163Z,22.62
2018-07-17T03:51:24.681Z,22.65
2018-07-17T03:52:05.214Z,22.72
2018-07-17T03:52:45.743Z,22.62
2018-07-17T03:53:26.305Z,22.86
2018-07-17T03:54:06.786Z,22.77
2018-07-17T03:54:47.311Z,22.77
2018-07-17T03:55:27.834Z,22.75
2018-07-17T03:56:08.370Z,22.64
2018-07-17T03:56:48.887Z,22.62
2018-07-17T03:57:29.410Z,22.9
2018-07-17T03:58:09.933Z,22.8
2018-07-17T03:58:50.456Z,22.75
2018-07-17T03:59:30.989Z,22.77
2018-07-17T04:00:11.512Z,22.77
2018-07-17T04:00:52.039Z,22.76
2018-07-17T04:01:32.546Z,22.76
2018-07-17T04:02:13.076Z,22.82
2018-07-17T04:02:53.699Z,22.88
2018-07-17T04:03:34.125Z,22.85
2018-07-17T04:04:14.699Z,22.65
2018-07-17T04:04:55.181Z,22.9
2018-07-17T04:05:35.708Z,22.8
2018-07-17T04:06:16.253Z,22.72
2018-07-17T04:06:56.772Z,22.75
2018-07-17T04:07:37.292Z,22.77
2018-07-17T04:08:17.799Z,22.91
2018-07-17T04:08:58.320Z,22.83
2018-07-17T04:09:38.838Z,22.86
2018-07-17T04:10:19.367Z,22.79
2018-07-17T04:10:59.888Z,22.75
2018-07-17T04:11:40.394Z,22.91
2018-07-17T04:12:20.922Z,23.02
2018-07-17T04:13:01.455Z,23
2018-07-17T04:13:41.970Z,23.01
2018-07-17T04:14:22.493Z,23.01
2018-07-17T04:15:03.011Z,23.02
2018-07-17T04:15:43.548Z,23.16
2018-07-17T04:16:24.078Z,23.09
2018-07-17T04:17:04.615Z,23.1
2018-07-17T04:17:45.127Z,23.13
2018-07-17T04:18:25.648Z,23.13
2018-07-17T04:19:06.171Z,23.12
2018-07-17T04:19:46.697Z,23.07
2018-07-17T04:20:27.218Z,23.09
2018-07-17T04:21:07.735Z,23.12
2018-07-17T04:21:48.268Z,23.13
2018-07-17T04:22:28.797Z,23.07
2018-07-17T04:23:09.314Z,23.13
2018-07-17T04:23:49.874Z,23.13
2018-07-17T04:24:30.366Z,23.16
2018-07-17T04:25:10.888Z,23.12
2018-07-17T04:25:51.415Z,23.15
2018-07-17T04:26:32.145Z,23.16
2018-07-17T04:27:12.663Z,23.07
2018-07-17T04:27:53.175Z,23.19
2018-07-17T04:28:33.700Z,23.16
2018-07-17T04:29:14.227Z,23.13
2018-07-17T04:29:54.847Z,23.19
2018-07-17T04:30:35.268Z,23.09
2018-07-17T04:31:15.784Z,23.19
2018-07-17T04:31:56.346Z,23.13
2018-07-17T04:32:36.861Z,23.13
2018-07-17T04:33:17.391Z,23.15
2018-07-17T04:33:57.911Z,23.13
2018-07-17T04:34:38.438Z,23.17
2018-07-17T04:35:18.968Z,23.17
2018-07-17T04:35:59.481Z,23.2
2018-07-17T04:36:40.018Z,23.15
2018-07-17T04:37:20.534Z,23.07
2018-07-17T04:38:01.053Z,23.16
2018-07-17T04:38:41.566Z,23.31
2018-07-17T04:39:22.081Z,23.33
2018-07-17T04:40:02.612Z,23.38
2018-07-17T04:40:43.142Z,23.4
2018-07-17T04:41:23.670Z,23.48
2018-07-17T04:42:04.205Z,23.38
2018-07-17T04:42:44.733Z,23.33
2018-07-17T04:43:25.253Z,23.4
2018-07-17T04:44:05.850Z,23.4
2018-07-17T04:44:46.306Z,23.28
2018-07-17T04:45:26.835Z,23.28
2018-07-17T04:46:07.344Z,23.38
2018-07-17T04:46:47.869Z,23.32
2018-07-17T04:47:28.419Z,23.25
2018-07-17T04:48:08.946Z,23.22
2018-07-17T04:48:49.465Z,23.27
2018-07-17T04:49:29.991Z,23.33
2018-07-17T04:50:10.488Z,23.38
2018-07-17T04:50:51.033Z,23.38
2018-07-17T04:51:31.564Z,23.35
2018-07-17T04:52:12.090Z,23.35
2018-07-17T04:52:52.624Z,23.32
2018-07-17T04:53:33.160Z,23.46
2018-07-17T04:54:13.800Z,23.46
2018-07-17T04:54:54.333Z,23.4
2018-07-17T04:55:34.837Z,23.43
2018-07-17T04:56:16.638Z,23.38
2018-07-17T04:56:57.189Z,23.42
2018-07-17T04:57:37.705Z,23.32
2018-07-17T04:58:18.221Z,23.47
2018-07-17T04:58:58.754Z,23.57
2018-07-17T04:59:39.290Z,23.73
2018-07-17T05:00:19.803Z,23.85
2018-07-17T05:01:00.323Z,23.73
2018-07-17T05:01:40.955Z,23.58
2018-07-17T05:02:21.373Z,23.65
2018-07-17T05:03:01.912Z,23.6
2018-07-17T05:03:42.447Z,23.55
2018-07-17T05:04:23.076Z,23.65
2018-07-17T05:05:03.597Z,23.43
2018-07-17T05:05:44.133Z,23.46
2018-07-17T05:06:24.658Z,23.65
2018-07-17T05:07:05.191Z,23.61
2018-07-17T05:07:45.706Z,23.5
2018-07-17T05:08:26.221Z,23.66
2018-07-17T05:09:06.743Z,23.63
2018-07-17T05:09:47.261Z,23.72
2018-07-17T05:10:27.802Z,23.73
2018-07-17T05:11:08.384Z,23.63
2018-07-17T05:11:48.813Z,23.55
2018-07-17T05:12:29.326Z,23.65
2018-07-17T05:13:09.848Z,23.7
2018-07-17T05:13:50.366Z,23.65
2018-07-17T05:14:30.892Z,23.66
2018-07-17T05:15:11.405Z,23.7
2018-07-17T05:15:51.937Z,23.72
2018-07-17T05:16:32.519Z,23.68
2018-07-17T05:17:12.986Z,23.72
2018-07-17T05:17:53.515Z,23.8
2018-07-17T05:18:34.095Z,24.06
2018-07-17T05:19:14.616Z,24.09
2018-07-17T05:19:55.142Z,24.06
2018-07-17T05:20:35.674Z,24.09
2018-07-17T05:21:16.201Z,24.02
2018-07-17T05:21:56.717Z,24.06
2018-07-17T05:22:37.220Z,24.16
2018-07-17T05:23:17.754Z,24.16
2018-07-17T05:23:58.288Z,24.12
2018-07-17T05:24:38.808Z,24.06
2018-07-17T05:25:19.338Z,24.08
2018-07-17T05:25:59.862Z,24.06
2018-07-17T05:26:40.380Z,24.08
2018-07-17T05:27:20.910Z,23.98
2018-07-17T05:28:01.436Z,23.88
2018-07-17T05:28:41.961Z,23.87
2018-07-17T05:29:22.479Z,23.87
2018-07-17T05:30:03.028Z,23.94
2018-07-17T05:30:43.545Z,23.87
2018-07-17T05:31:24.076Z,23.79
2018-07-17T05:32:04.597Z,23.83
2018-07-17T05:32:45.131Z,23.73
2018-07-17T05:33:25.647Z,23.7
2018-07-17T05:34:06.164Z,23.7
2018-07-17T05:34:46.687Z,23.72
2018-07-17T05:35:27.304Z,23.72
2018-07-17T05:36:07.751Z,23.66
2018-07-17T05:36:48.278Z,23.54
2018-07-17T05:37:28.808Z,23.58
2018-07-17T05:38:09.344Z,23.53
2018-07-17T05:38:49.863Z,23.54
2018-07-17T05:39:30.388Z,23.47
2018-07-17T05:40:10.920Z,23.46
2018-07-17T05:40:51.459Z,23.54
2018-07-17T05:41:31.985Z,23.63
2018-07-17T05:42:12.588Z,23.55
2018-07-17T05:42:53.103Z,23.69
2018-07-17T05:43:33.679Z,23.54
2018-07-17T05:44:14.197Z,23.51
2018-07-17T05:44:54.721Z,23.4
2018-07-17T05:45:35.313Z,23.51
2018-07-17T05:46:15.786Z,23.55
2018-07-17T05:46:56.318Z,23.54
2018-07-17T05:47:36.838Z,23.65
2018-07-17T05:48:17.354Z,23.57
2018-07-17T05:48:57.883Z,23.72
2018-07-17T05:49:38.458Z,23.91
2018-07-17T05:50:18.936Z,23.85
2018-07-17T05:50:59.459Z,23.94
2018-07-17T05:51:39.975Z,24.02
2018-07-17T05:52:20.495Z,23.97
2018-07-17T05:53:01.025Z,23.84
2018-07-17T05:53:41.556Z,24.05
2018-07-17T05:54:22.080Z,24
2018-07-17T05:55:02.601Z,23.91
2018-07-17T05:55:43.122Z,23.97
2018-07-17T05:56:23.657Z,24.02
2018-07-17T05:57:04.182Z,24.06
2018-07-17T05:57:44.699Z,24.24
2018-07-17T05:58:25.246Z,24.09
2018-07-17T05:59:05.768Z,24.24
2018-07-17T05:59:46.301Z,24.35
2018-07-17T06:00:26.811Z,24.52
2018-07-17T06:01:07.349Z,24.68
2018-07-17T06:01:47.863Z,24.77
2018-07-17T06:02:28.400Z,24.9
2018-07-17T06:03:08.912Z,25.14
2018-07-17T06:03:49.442Z,25.24
2018-07-17T06:04:29.965Z,25.32
2018-07-17T06:05:10.486Z,25.55
2018-07-17T06:05:51.001Z,25.5
2018-07-17T06:06:31.519Z,25.51
2018-07-17T06:07:12.050Z,25.6
2018-07-17T06:07:52.575Z,25.57
2018-07-17T06:08:33.107Z,25.7
2018-07-17T06:09:13.646Z,25.73
2018-07-17T06:09:54.163Z,25.83
2018-07-17T06:10:34.704Z,25.99
2018-07-17T06:11:15.230Z,26.09
2018-07-17T06:11:55.760Z,26.17
2018-07-17T06:12:36.285Z,26.29
2018-07-17T06:13:16.822Z,26.37
2018-07-17T06:13:57.366Z,26.39
2018-07-17T06:14:37.879Z,26.39
2018-07-17T06:15:18.411Z,26.52
2018-07-17T06:15:58.912Z,26.51
2018-07-17T06:16:39.469Z,26.58
2018-07-17T06:17:19.987Z,26.6
2018-07-17T06:18:00.527Z,26.55
2018-07-17T06:18:41.039Z,26.65
2018-07-17T06:19:21.568Z,26.69
2018-07-17T06:20:02.094Z,26.75
2018-07-17T06:20:44.211Z,26.76
2018-07-17T06:21:23.337Z,26.76
2018-07-17T06:22:03.858Z,26.89
2018-07-17T06:22:44.382Z,26.77
2018-07-17T06:23:24.929Z,26.82
2018-07-17T06:24:05.465Z,26.81
2018-07-17T06:24:45.988Z,26.84
2018-07-17T06:25:26.522Z,26.8
2018-07-17T06:26:07.041Z,26.89
2018-07-17T06:26:47.560Z,26.92
2018-07-17T06:27:28.088Z,26.81
2018-07-17T06:28:08.618Z,26.76
2018-07-17T06:28:49.138Z,26.8
2018-07-17T06:29:29.667Z,26.82
2018-07-17T06:30:10.199Z,26.5
2018-07-17T06:30:50.725Z,26.54
2018-07-17T06:31:31.235Z,26.73
2018-07-17T06:32:11.811Z,26.8
2018-07-17T06:32:52.375Z,26.81
2018-07-17T06:33:32.868Z,26.85
2018-07-17T06:34:13.387Z,26.84
2018-07-17T06:34:53.920Z,26.87
2018-07-17T06:35:34.435Z,26.85
2018-07-17T06:36:14.992Z,26.85
2018-07-17T06:36:55.520Z,26.92
2018-07-17T06:37:36.040Z,26.97
2018-07-17T06:38:16.554Z,26.92
2018-07-17T06:38:57.122Z,26.88
2018-07-17T06:39:37.622Z,26.99
2018-07-17T06:40:18.133Z,27
2018-07-17T06:40:58.656Z,27.02
2018-07-17T06:41:39.186Z,26.91
2018-07-17T06:42:19.705Z,27.03
2018-07-17T06:43:00.237Z,27.1
2018-07-17T06:43:40.752Z,27.07
2018-07-17T06:44:21.279Z,27.09
2018-07-17T06:45:01.811Z,27.17
2018-07-17T06:45:42.323Z,27.1
2018-07-17T06:46:22.886Z,27.25
2018-07-17T06:47:03.423Z,27.21
2018-07-17T06:47:43.959Z,27.17
2018-07-17T06:48:24.485Z,27.27
2018-07-17T06:49:05.005Z,27.41
2018-07-17T06:49:45.540Z,27.4
2018-07-17T06:50:26.088Z,27.46
2018-07-17T06:51:06.608Z,27.43
2018-07-17T06:51:47.152Z,27.43
2018-07-17T06:52:27.674Z,27.41
2018-07-17T06:53:08.199Z,27.46
2018-07-17T06:53:48.724Z,27.51
2018-07-17T06:54:29.244Z,27.44
2018-07-17T06:55:09.778Z,27.51
2018-07-17T06:55:50.300Z,27.65
2018-07-17T06:56:30.820Z,27.7
2018-07-17T06:57:11.355Z,27.59
2018-07-17T06:57:51.872Z,27.7
2018-07-17T06:58:32.425Z,27.82
2018-07-17T06:59:13.650Z,27.84
2018-07-17T06:59:54.190Z,27.82
2018-07-17T07:00:34.715Z,27.67
2018-07-17T07:01:15.251Z,27.78
2018-07-17T07:01:55.787Z,27.81
2018-07-17T07:02:36.311Z,27.85
2018-07-17T07:03:16.831Z,27.96
2018-07-17T07:03:57.345Z,27.93
2018-07-17T07:04:37.844Z,27.96
2018-07-17T07:05:18.447Z,28.09
2018-07-17T07:05:58.916Z,28.17
2018-07-17T07:06:39.463Z,28.12
2018-07-17T07:07:19.985Z,28.12
2018-07-17T07:08:00.489Z,28.07
2018-07-17T07:08:41.011Z,28.12
2018-07-17T07:09:21.547Z,28.19
2018-07-17T07:10:02.080Z,28.14
2018-07-17T07:10:42.602Z,28.18
2018-07-17T07:11:23.157Z,28.11
2018-07-17T07:12:03.651Z,28.12
2018-07-17T07:12:44.190Z,27.96
2018-07-17T07:13:24.724Z,27.94
2018-07-17T07:14:05.251Z,27.99
2018-07-17T07:14:45.765Z,28.02
2018-07-17T07:15:26.308Z,27.96
2018-07-17T07:16:06.837Z,27.96
2018-07-17T07:16:47.363Z,27.96
2018-07-17T07:17:27.882Z,27.88
2018-07-17T07:18:08.392Z,27.87
2018-07-17T07:18:48.907Z,27.84
2018-07-17T07:19:29.449Z,27.93
2018-07-17T07:20:09.975Z,27.99
2018-07-17T07:20:50.484Z,28.06
2018-07-17T07:21:31.063Z,28.17
2018-07-17T07:22:11.594Z,28.14
2018-07-17T07:22:52.123Z,28.21
2018-07-17T07:23:32.643Z,28.11
2018-07-17T07:24:13.168Z,28.15
2018-07-17T07:24:53.701Z,28.15
2018-07-17T07:25:34.224Z,28.19
2018-07-17T07:26:14.745Z,28.04
2018-07-17T07:26:55.257Z,27.9
2018-07-17T07:27:35.788Z,27.88
2018-07-17T07:28:16.312Z,27.87
2018-07-17T07:28:56.852Z,27.99
2018-07-17T07:29:37.380Z,28.14
2018-07-17T07:30:17.906Z,28.19
2018-07-17T07:30:58.507Z,28.33
2018-07-17T07:31:38.965Z,28.19
2018-07-17T07:32:19.523Z,28.22
2018-07-17T07:33:00.024Z,28.22
2018-07-17T07:33:40.556Z,28.21
2018-07-17T07:34:21.081Z,28.33
2018-07-17T07:35:01.602Z,28.31
2018-07-17T07:35:42.126Z,28.3
2018-07-17T07:36:22.651Z,28.29
2018-07-17T07:37:03.184Z,28.33
2018-07-17T07:37:43.719Z,28.41
2018-07-17T07:38:24.259Z,28.36
2018-07-17T07:39:04.783Z,28.55
2018-07-17T07:39:45.305Z,28.46
2018-07-17T07:40:25.829Z,28.54
2018-07-17T07:41:06.362Z,28.62
2018-07-17T07:41:46.892Z,28.56
2018-07-17T07:42:27.433Z,28.61
2018-07-17T07:43:07.963Z,28.67
2018-07-17T07:43:48.495Z,28.66
2018-07-17T07:44:29.024Z,28.77
2018-07-17T07:45:09.543Z,28.73
2018-07-17T07:45:50.063Z,28.77
2018-07-17T07:46:30.581Z,28.66
2018-07-17T07:47:11.148Z,28.68
2018-07-17T07:47:51.671Z,28.71
2018-07-17T07:48:32.217Z,28.76
2018-07-17T07:49:12.783Z,28.7
2018-07-17T07:49:53.311Z,28.86
2018-07-17T07:50:33.827Z,28.76
2018-07-17T07:51:14.369Z,28.85
2018-07-17T07:51:54.908Z,28.86
2018-07-17T07:52:35.429Z,28.85
2018-07-17T07:53:15.963Z,28.77
2018-07-17T07:53:56.483Z,28.68
2018-07-17T07:54:37.019Z,28.66
2018-07-17T07:55:17.547Z,28.67
2018-07-17T07:55:58.070Z,28.66
2018-07-17T07:56:38.573Z,28.54
2018-07-17T07:57:19.103Z,28.58
2018-07-17T07:57:59.631Z,28.51
2018-07-17T07:58:40.179Z,28.66
2018-07-17T07:59:20.711Z,28.51
2018-07-17T08:00:01.248Z,28.54
2018-07-17T08:00:41.781Z,28.51
2018-07-17T08:01:22.303Z,28.52
2018-07-17T08:02:02.872Z,28.67
2018-07-17T08:02:43.398Z,28.66
2018-07-17T08:03:23.917Z,28.66
2018-07-17T08:04:04.557Z,28.62
2018-07-17T08:04:44.951Z,28.7
2018-07-17T08:05:25.498Z,28.78
2018-07-17T08:06:06.021Z,28.76
2018-07-17T08:06:46.568Z,28.76
2018-07-17T08:07:27.088Z,28.89
2018-07-17T08:08:07.665Z,28.78
2018-07-17T08:08:48.163Z,28.89
2018-07-17T08:09:28.689Z,28.81
2018-07-17T08:10:09.236Z,28.83
2018-07-17T08:10:49.769Z,28.83
2018-07-17T08:11:30.312Z,28.85
2018-07-17T08:12:10.871Z,28.85
2018-07-17T08:12:51.354Z,28.89
2018-07-17T08:13:31.899Z,28.81
2018-07-17T08:14:12.427Z,28.85
2018-07-17T08:14:52.952Z,28.83
2018-07-17T08:15:33.480Z,28.67
2018-07-17T08:16:13.994Z,28.76
2018-07-17T08:16:54.528Z,28.85
2018-07-17T08:17:35.059Z,28.68
2018-07-17T08:18:15.630Z,28.7
2018-07-17T08:18:56.173Z,28.7
2018-07-17T08:19:36.690Z,28.64
2018-07-17T08:20:17.191Z,28.76
2018-07-17T08:20:57.733Z,28.81
2018-07-17T08:21:38.264Z,28.8
2018-07-17T08:22:18.793Z,28.81
2018-07-17T08:22:59.369Z,28.7
2018-07-17T08:23:39.882Z,28.68
2018-07-17T08:24:20.472Z,28.71
2018-07-17T08:25:00.929Z,28.71
2018-07-17T08:25:41.444Z,28.62
2018-07-17T08:26:21.954Z,28.59
2018-07-17T08:27:02.489Z,28.49
2018-07-17T08:27:43.076Z,28.68
2018-07-17T08:28:23.545Z,28.59
2018-07-17T08:29:04.073Z,28.71
2018-07-17T08:29:44.681Z,28.77
2018-07-17T08:30:25.270Z,28.71
2018-07-17T08:31:05.797Z,28.61
2018-07-17T08:31:46.319Z,28.52
2018-07-17T08:32:26.932Z,28.61
2018-07-17T08:33:07.448Z,28.61
2018-07-17T08:33:47.999Z,28.67
2018-07-17T08:34:28.498Z,28.73
2018-07-17T08:35:09.061Z,28.68
2018-07-17T08:35:49.616Z,28.7
2018-07-17T08:36:30.089Z,28.51
2018-07-17T08:37:10.616Z,28.58
2018-07-17T08:37:51.135Z,28.54
2018-07-17T08:38:31.646Z,28.52
2018-07-17T08:39:12.164Z,28.54
2018-07-17T08:39:52.812Z,28.55
2018-07-17T08:40:33.320Z,28.56
2018-07-17T08:41:13.851Z,28.64
2018-07-17T08:41:54.380Z,28.67
2018-07-17T08:42:34.906Z,28.54
2018-07-17T08:43:15.453Z,28.51
2018-07-17T08:43:56.017Z,28.44
2018-07-17T08:44:36.487Z,28.44